PWSweather.com
Personal Weather Stations
Station Observations
BOOMEPH
Weather On The Hill Or Not, Ephrata, PA 17522

Weather On The Hill Or NotEphrata, PA 17522

Lat: 40.17243, Lon: -76.180815

Elevation: 597

Station Type: Ambient WS 1080

Latest ConditionsUpdated 1:43:00 AM EDT Friday, Aug 1, 2014
Currently Today's Max Today's Min Today's Average
Temperature 69.6°F20.9°C 71.4°F21.9°C 69.4°F20.8°C 70.6°F21.4°C
Dew Point 69.7°F20.9°C 71.5°F21.9°C 69.5°F20.8°C 70.6°F21.4°C
Winds Calm Calm 2.2 mph SSW3.5 kmh SSW - 0.4 mph 0.6 kmh
Wind Gusts 3.1 mph5.0 kmh 4.5 mph7.2 kmh - -
Humidity 100% 100% 100% 100%
Pressure 30.51 in1033.2 mb 30.51 in1033.2 mb 30.49 in1032.5 mb -
Hour Temp Dew Point Humidity Winds Wind Gusts Pressure Precip Precip Rate Daily Precip Total
01:43 AM 69.6°F20.9°C 69.7°F20.9°C 100% Calm Calm 3.1 mph5.0 kmh 30.51 in1033.2 mb 0.00 in0.0 mm 0.00 in/hr0.0 mm/hr 0.00 in0.0 mm
01:42 AM 69.4°F20.8°C 69.5°F20.8°C 100% 0.7 mph WSW1.1 kmh WSW 3.1 mph5.0 kmh 30.51 in1033.2 mb 0.00 in0.0 mm 0.00 in/hr0.0 mm/hr 0.00 in0.0 mm
01:41 AM 69.4°F20.8°C 69.5°F20.8°C 100% Calm Calm 3.1 mph5.0 kmh 30.51 in1033.2 mb 0.00 in0.0 mm 0.00 in/hr0.0 mm/hr 0.00 in0.0 mm
01:40 AM 69.6°F20.9°C 69.7°F20.9°C 100% Calm Calm 3.1 mph5.0 kmh 30.51 in1033.2 mb 0.00 in0.0 mm 0.00 in/hr0.0 mm/hr 0.00 in0.0 mm
01:39 AM 69.6°F20.9°C 69.7°F20.9°C 100% Calm Calm 3.1 mph5.0 kmh 30.51 in1033.2 mb 0.00 in0.0 mm 0.00 in/hr0.0 mm/hr 0.00 in0.0 mm
01:38 AM 69.6°F20.9°C 69.7°F20.9°C 100% Calm Calm 3.1 mph5.0 kmh 30.51 in1033.2 mb 0.00 in0.0 mm 0.00 in/hr0.0 mm/hr 0.00 in0.0 mm
01:37 AM 69.6°F20.9°C 69.7°F20.9°C 100% Calm Calm 3.1 mph5.0 kmh 30.51 in1033.2 mb 0.00 in0.0 mm 0.00 in/hr0.0 mm/hr 0.00 in0.0 mm
01:36 AM 69.6°F20.9°C 69.7°F20.9°C 100% Calm Calm 3.1 mph5.0 kmh 30.51 in1033.2 mb 0.00 in0.0 mm 0.00 in/hr0.0 mm/hr 0.00 in0.0 mm
01:35 AM 69.6°F20.9°C 69.7°F20.9°C 100% Calm Calm 3.1 mph5.0 kmh 30.51 in1033.2 mb 0.00 in0.0 mm 0.00 in/hr0.0 mm/hr 0.00 in0.0 mm
01:34 AM 69.8°F21.0°C 69.8°F21.0°C 100% Calm Calm 3.1 mph5.0 kmh 30.51 in1033.2 mb 0.00 in0.0 mm 0.00 in/hr0.0 mm/hr 0.00 in0.0 mm
01:33 AM 70.0°F21.1°C 70.0°F21.1°C 100% Calm Calm 3.1 mph5.0 kmh 30.51 in1033.2 mb 0.00 in0.0 mm 0.00 in/hr0.0 mm/hr 0.00 in0.0 mm
01:32 AM 69.8°F21.0°C 69.8°F21.0°C 100% 1.6 mph SSW2.6 kmh SSW 3.1 mph5.0 kmh 30.51 in1033.2 mb 0.00 in0.0 mm 0.00 in/hr0.0 mm/hr 0.00 in0.0 mm
01:31 AM 69.8°F21.0°C 69.8°F21.0°C 100% Calm Calm 2.2 mph3.5 kmh 30.51 in1033.2 mb 0.00 in0.0 mm 0.00 in/hr0.0 mm/hr 0.00 in0.0 mm
01:30 AM 70.0°F21.1°C 70.0°F21.1°C 100% Calm Calm 2.2 mph3.5 kmh 30.50 in1032.8 mb 0.00 in0.0 mm 0.00 in/hr0.0 mm/hr 0.00 in0.0 mm
01:29 AM 69.8°F21.0°C 69.8°F21.0°C 100% 0.7 mph SSW1.1 kmh SSW 2.2 mph3.5 kmh 30.51 in1033.2 mb 0.00 in0.0 mm 0.00 in/hr0.0 mm/hr 0.00 in0.0 mm
01:28 AM 69.8°F21.0°C 69.8°F21.0°C 100% 0.7 mph S1.1 kmh S 2.2 mph3.5 kmh 30.51 in1033.2 mb 0.00 in0.0 mm 0.00 in/hr0.0 mm/hr 0.00 in0.0 mm
01:27 AM 69.8°F21.0°C 69.8°F21.0°C 100% Calm Calm 2.2 mph3.5 kmh 30.51 in1033.2 mb 0.00 in0.0 mm 0.00 in/hr0.0 mm/hr 0.00 in0.0 mm
01:26 AM 70.0°F21.1°C 70.0°F21.1°C 100% Calm Calm 2.2 mph3.5 kmh 30.51 in1033.2 mb 0.00 in0.0 mm 0.00 in/hr0.0 mm/hr 0.00 in0.0 mm
01:25 AM 70.0°F21.1°C 70.0°F21.1°C 100% 0.7 mph SSW1.1 kmh SSW 2.2 mph3.5 kmh 30.51 in1033.2 mb 0.00 in0.0 mm 0.00 in/hr0.0 mm/hr 0.00 in0.0 mm
01:24 AM 69.8°F21.0°C 69.8°F21.0°C 100% 0.7 mph SW1.1 kmh SW 2.2 mph3.5 kmh 30.51 in1033.2 mb 0.00 in0.0 mm 0.00 in/hr0.0 mm/hr 0.00 in0.0 mm
01:23 AM 69.8°F21.0°C 69.8°F21.0°C 100% 1.6 mph WNW2.6 kmh WNW 2.2 mph3.5 kmh 30.51 in1033.2 mb 0.00 in0.0 mm 0.00 in/hr0.0 mm/hr 0.00 in0.0 mm
01:22 AM 69.8°F21.0°C 69.8°F21.0°C 100% Calm Calm 3.1 mph5.0 kmh 30.51 in1033.2 mb 0.00 in0.0 mm 0.00 in/hr0.0 mm/hr 0.00 in0.0 mm
01:21 AM 70.0°F21.1°C 70.0°F21.1°C 100% Calm Calm 3.1 mph5.0 kmh 30.51 in1033.2 mb 0.00 in0.0 mm 0.00 in/hr0.0 mm/hr 0.00 in0.0 mm
01:20 AM 70.0°F21.1°C 70.0°F21.1°C 100% Calm Calm 3.1 mph5.0 kmh 30.51 in1033.2 mb 0.00 in0.0 mm 0.00 in/hr0.0 mm/hr 0.00 in0.0 mm
01:19 AM 70.0°F21.1°C 70.0°F21.1°C 100% Calm Calm 3.1 mph5.0 kmh 30.51 in1033.2 mb 0.00 in0.0 mm 0.00 in/hr0.0 mm/hr 0.00 in0.0 mm
01:18 AM 70.0°F21.1°C 70.0°F21.1°C 100% Calm Calm 3.1 mph5.0 kmh 30.51 in1033.2 mb 0.00 in0.0 mm 0.00 in/hr0.0 mm/hr 0.00 in0.0 mm
01:17 AM 70.2°F21.2°C 70.2°F21.2°C 100% Calm Calm 3.1 mph5.0 kmh 30.51 in1033.2 mb 0.00 in0.0 mm 0.00 in/hr0.0 mm/hr 0.00 in0.0 mm
01:16 AM 70.2°F21.2°C 70.2°F21.2°C 100% Calm Calm 3.1 mph5.0 kmh 30.51 in1033.2 mb 0.00 in0.0 mm 0.00 in/hr0.0 mm/hr 0.00 in0.0 mm
01:15 AM 70.2°F21.2°C 70.2°F21.2°C 100% Calm Calm 3.1 mph5.0 kmh 30.51 in1033.2 mb 0.00 in0.0 mm 0.00 in/hr0.0 mm/hr 0.00 in0.0 mm
01:14 AM 70.3°F21.3°C 70.4°F21.3°C 100% Calm Calm 4.5 mph7.2 kmh 30.50 in1032.8 mb 0.00 in0.0 mm 0.00 in/hr0.0 mm/hr 0.00 in0.0 mm
01:13 AM 70.3°F21.3°C 70.4°F21.3°C 100% 1.6 mph SW2.6 kmh SW 4.5 mph7.2 kmh 30.51 in1033.2 mb 0.00 in0.0 mm 0.00 in/hr0.0 mm/hr 0.00 in0.0 mm
01:12 AM 70.3°F21.3°C 70.4°F21.3°C 100% Calm Calm 4.5 mph7.2 kmh 30.50 in1032.8 mb 0.00 in0.0 mm 0.00 in/hr0.0 mm/hr 0.00 in0.0 mm
01:11 AM 70.2°F21.2°C 70.2°F21.2°C 100% 1.6 mph SW2.6 kmh SW 4.5 mph7.2 kmh 30.50 in1032.8 mb 0.00 in0.0 mm 0.00 in/hr0.0 mm/hr 0.00 in0.0 mm
01:10 AM 70.2°F21.2°C 70.2°F21.2°C 100% 0.7 mph SW1.1 kmh SW 4.5 mph7.2 kmh 30.50 in1032.8 mb 0.00 in0.0 mm 0.00 in/hr0.0 mm/hr 0.00 in0.0 mm
01:09 AM 70.2°F21.2°C 70.2°F21.2°C 100% Calm Calm 4.5 mph7.2 kmh 30.50 in1032.8 mb 0.00 in0.0 mm 0.00 in/hr0.0 mm/hr 0.00 in0.0 mm
01:08 AM 70.2°F21.2°C 70.2°F21.2°C 100% Calm Calm 4.5 mph7.2 kmh 30.50 in1032.8 mb 0.00 in0.0 mm 0.00 in/hr0.0 mm/hr 0.00 in0.0 mm
01:07 AM 70.2°F21.2°C 70.2°F21.2°C 100% 0.7 mph SW1.1 kmh SW 4.5 mph7.2 kmh 30.50 in1032.8 mb 0.00 in0.0 mm 0.00 in/hr0.0 mm/hr 0.00 in0.0 mm
01:06 AM 70.3°F21.3°C 70.4°F21.3°C 100% Calm Calm 4.5 mph7.2 kmh 30.50 in1032.8 mb 0.00 in0.0 mm 0.00 in/hr0.0 mm/hr 0.00 in0.0 mm
01:05 AM 70.3°F21.3°C 70.4°F21.3°C 100% 1.6 mph SW2.6 kmh SW 4.5 mph7.2 kmh 30.50 in1032.8 mb 0.00 in0.0 mm 0.00 in/hr0.0 mm/hr 0.00 in0.0 mm
01:04 AM 70.2°F21.2°C 70.2°F21.2°C 100% 1.6 mph SW2.6 kmh SW 4.5 mph7.2 kmh 30.50 in1032.8 mb 0.00 in0.0 mm 0.00 in/hr0.0 mm/hr 0.00 in0.0 mm
01:03 AM 70.2°F21.2°C 70.2°F21.2°C 100% Calm Calm 2.2 mph3.5 kmh 30.50 in1032.8 mb 0.00 in0.0 mm 0.00 in/hr0.0 mm/hr 0.00 in0.0 mm
01:02 AM 70.3°F21.3°C 70.4°F21.3°C 100% Calm Calm 2.2 mph3.5 kmh 30.50 in1032.8 mb 0.00 in0.0 mm 0.00 in/hr0.0 mm/hr 0.00 in0.0 mm
01:01 AM 70.5°F21.4°C 70.6°F21.4°C 100% Calm Calm 2.2 mph3.5 kmh 30.50 in1032.8 mb 0.00 in0.0 mm 0.00 in/hr0.0 mm/hr 0.00 in0.0 mm
01:00 AM 70.5°F21.4°C 70.6°F21.4°C 100% Calm Calm 2.2 mph3.5 kmh 30.50 in1032.8 mb 0.00 in0.0 mm 0.00 in/hr0.0 mm/hr 0.00 in0.0 mm
12:59 AM 70.7°F21.5°C 70.7°F21.5°C 100% Calm Calm 2.2 mph3.5 kmh 30.50 in1032.8 mb 0.00 in0.0 mm 0.00 in/hr0.0 mm/hr 0.00 in0.0 mm
12:58 AM 70.7°F21.5°C 70.7°F21.5°C 100% Calm Calm 2.2 mph3.5 kmh 30.50 in1032.8 mb 0.00 in0.0 mm 0.00 in/hr0.0 mm/hr 0.00 in0.0 mm
12:57 AM 70.9°F21.6°C 70.9°F21.6°C 100% 0.7 mph SW1.1 kmh SW 2.2 mph3.5 kmh 30.50 in1032.8 mb 0.00 in0.0 mm 0.00 in/hr0.0 mm/hr 0.00 in0.0 mm
12:56 AM 70.9°F21.6°C 70.9°F21.6°C 100% 0.7 mph SW1.1 kmh SW 2.2 mph3.5 kmh 30.50 in1032.8 mb 0.00 in0.0 mm 0.00 in/hr0.0 mm/hr 0.00 in0.0 mm
12:55 AM 70.7°F21.5°C 70.7°F21.5°C 100% 1.6 mph SW2.6 kmh SW 3.1 mph5.0 kmh 30.50 in1032.8 mb 0.00 in0.0 mm 0.00 in/hr0.0 mm/hr 0.00 in0.0 mm
12:54 AM 70.7°F21.5°C 70.7°F21.5°C 100% 0.7 mph SW1.1 kmh SW 3.1 mph5.0 kmh 30.50 in1032.8 mb 0.00 in0.0 mm 0.00 in/hr0.0 mm/hr 0.00 in0.0 mm
12:53 AM 70.7°F21.5°C 70.7°F21.5°C 100% Calm Calm 3.1 mph5.0 kmh 30.50 in1032.8 mb 0.00 in0.0 mm 0.00 in/hr0.0 mm/hr 0.00 in0.0 mm
12:52 AM 70.7°F21.5°C 70.7°F21.5°C 100% Calm Calm 3.1 mph5.0 kmh 30.50 in1032.8 mb 0.00 in0.0 mm 0.00 in/hr0.0 mm/hr 0.00 in0.0 mm
12:51 AM 70.7°F21.5°C 70.7°F21.5°C 100% Calm Calm 3.1 mph5.0 kmh 30.50 in1032.8 mb 0.00 in0.0 mm 0.00 in/hr0.0 mm/hr 0.00 in0.0 mm
12:50 AM 70.9°F21.6°C 70.9°F21.6°C 100% Calm Calm 3.1 mph5.0 kmh 30.50 in1032.8 mb 0.00 in0.0 mm 0.00 in/hr0.0 mm/hr 0.00 in0.0 mm
12:49 AM 70.9°F21.6°C 70.9°F21.6°C 100% Calm Calm 3.1 mph5.0 kmh 30.50 in1032.8 mb 0.00 in0.0 mm 0.00 in/hr0.0 mm/hr 0.00 in0.0 mm
12:48 AM 70.9°F21.6°C 70.9°F21.6°C 100% Calm Calm 3.1 mph5.0 kmh 30.50 in1032.8 mb 0.00 in0.0 mm 0.00 in/hr0.0 mm/hr 0.00 in0.0 mm
12:47 AM 70.9°F21.6°C 70.9°F21.6°C 100% 1.6 mph S2.6 kmh S 3.1 mph5.0 kmh 30.50 in1032.8 mb 0.00 in0.0 mm 0.00 in/hr0.0 mm/hr 0.00 in0.0 mm
12:46 AM 70.9°F21.6°C 70.9°F21.6°C 100% 0.7 mph S1.1 kmh S 3.1 mph5.0 kmh 30.50 in1032.8 mb 0.00 in0.0 mm 0.00 in/hr0.0 mm/hr 0.00 in0.0 mm
12:45 AM 71.1°F21.7°C 71.1°F21.7°C 100% Calm Calm 3.1 mph5.0 kmh 30.50 in1032.8 mb 0.00 in0.0 mm 0.00 in/hr0.0 mm/hr 0.00 in0.0 mm
12:44 AM 70.9°F21.6°C 70.9°F21.6°C 100% 0.7 mph S1.1 kmh S 3.1 mph5.0 kmh 30.50 in1032.8 mb 0.00 in0.0 mm 0.00 in/hr0.0 mm/hr 0.00 in0.0 mm
12:43 AM 71.1°F21.7°C 71.1°F21.7°C 100% Calm Calm 3.1 mph5.0 kmh 30.50 in1032.8 mb 0.00 in0.0 mm 0.00 in/hr0.0 mm/hr 0.00 in0.0 mm
12:42 AM 71.1°F21.7°C 71.1°F21.7°C 100% Calm Calm 3.1 mph5.0 kmh 30.51 in1033.2 mb 0.00 in0.0 mm 0.00 in/hr0.0 mm/hr 0.00 in0.0 mm
12:41 AM 71.2°F21.8°C 71.3°F21.8°C 100% Calm Calm 3.1 mph5.0 kmh 30.51 in1033.2 mb 0.00 in0.0 mm 0.00 in/hr0.0 mm/hr 0.00 in0.0 mm
12:40 AM 71.2°F21.8°C 71.3°F21.8°C 100% Calm Calm 3.1 mph5.0 kmh 30.50 in1032.8 mb 0.00 in0.0 mm 0.00 in/hr0.0 mm/hr 0.00 in0.0 mm
12:39 AM 71.2°F21.8°C 71.3°F21.8°C 100% 1.6 mph SSW2.6 kmh SSW 3.1 mph5.0 kmh 30.50 in1032.8 mb 0.00 in0.0 mm 0.00 in/hr0.0 mm/hr 0.00 in0.0 mm
12:38 AM 71.2°F21.8°C 71.3°F21.8°C 100% Calm Calm 3.1 mph5.0 kmh 30.50 in1032.8 mb 0.00 in0.0 mm 0.00 in/hr0.0 mm/hr 0.00 in0.0 mm
12:37 AM 71.1°F21.7°C 71.1°F21.7°C 100% 2.2 mph SSW3.5 kmh SSW 3.1 mph5.0 kmh 30.50 in1032.8 mb 0.00 in0.0 mm 0.00 in/hr0.0 mm/hr 0.00 in0.0 mm
12:36 AM 70.9°F21.6°C 70.9°F21.6°C 100% 0.7 mph S1.1 kmh S 2.2 mph3.5 kmh 30.50 in1032.8 mb 0.00 in0.0 mm 0.00 in/hr0.0 mm/hr 0.00 in0.0 mm
12:35 AM 70.9°F21.6°C 70.9°F21.6°C 100% Calm Calm 2.2 mph3.5 kmh 30.50 in1032.8 mb 0.00 in0.0 mm 0.00 in/hr0.0 mm/hr 0.00 in0.0 mm
12:34 AM 70.7°F21.5°C 70.7°F21.5°C 100% Calm Calm 2.2 mph3.5 kmh 30.50 in1032.8 mb 0.00 in0.0 mm 0.00 in/hr0.0 mm/hr 0.00 in0.0 mm
12:33 AM 70.7°F21.5°C 70.7°F21.5°C 100% Calm Calm 2.2 mph3.5 kmh 30.50 in1032.8 mb 0.00 in0.0 mm 0.00 in/hr0.0 mm/hr 0.00 in0.0 mm
12:32 AM 70.9°F21.6°C 70.9°F21.6°C 100% Calm Calm 2.2 mph3.5 kmh 30.50 in1032.8 mb 0.00 in0.0 mm 0.00 in/hr0.0 mm/hr 0.00 in0.0 mm
12:31 AM 70.9°F21.6°C 70.9°F21.6°C 100% Calm Calm 2.2 mph3.5 kmh 30.50 in1032.8 mb 0.00 in0.0 mm 0.00 in/hr0.0 mm/hr 0.00 in0.0 mm
12:30 AM 70.9°F21.6°C 70.9°F21.6°C 100% 0.7 mph S1.1 kmh S 3.1 mph5.0 kmh 30.50 in1032.8 mb 0.00 in0.0 mm 0.00 in/hr0.0 mm/hr 0.00 in0.0 mm
12:29 AM 71.1°F21.7°C 71.1°F21.7°C 100% Calm Calm 3.1 mph5.0 kmh 30.50 in1032.8 mb 0.00 in0.0 mm 0.00 in/hr0.0 mm/hr 0.00 in0.0 mm
12:28 AM 71.1°F21.7°C 71.1°F21.7°C 100% Calm Calm 3.1 mph5.0 kmh 30.50 in1032.8 mb 0.00 in0.0 mm 0.00 in/hr0.0 mm/hr 0.00 in0.0 mm
12:27 AM 71.1°F21.7°C 71.1°F21.7°C 100% Calm Calm 3.1 mph5.0 kmh 30.50 in1032.8 mb 0.00 in0.0 mm 0.00 in/hr0.0 mm/hr 0.00 in0.0 mm
12:26 AM 71.1°F21.7°C 71.1°F21.7°C 100% Calm Calm 3.1 mph5.0 kmh 30.50 in1032.8 mb 0.00 in0.0 mm 0.00 in/hr0.0 mm/hr 0.00 in0.0 mm
12:25 AM 71.2°F21.8°C 71.3°F21.8°C 100% Calm Calm 3.1 mph5.0 kmh 30.50 in1032.8 mb 0.00 in0.0 mm 0.00 in/hr0.0 mm/hr 0.00 in0.0 mm
12:24 AM 71.1°F21.7°C 71.1°F21.7°C 100% 1.6 mph S2.6 kmh S 3.1 mph5.0 kmh 30.50 in1032.8 mb 0.00 in0.0 mm 0.00 in/hr0.0 mm/hr 0.00 in0.0 mm
12:23 AM 71.1°F21.7°C 71.1°F21.7°C 100% Calm Calm 3.1 mph5.0 kmh 30.50 in1032.8 mb 0.00 in0.0 mm 0.00 in/hr0.0 mm/hr 0.00 in0.0 mm
12:22 AM 71.2°F21.8°C 71.3°F21.8°C 100% Calm Calm 3.1 mph5.0 kmh 30.50 in1032.8 mb 0.00 in0.0 mm 0.00 in/hr0.0 mm/hr 0.00 in0.0 mm
12:21 AM 71.2°F21.8°C 71.3°F21.8°C 100% 1.6 mph S2.6 kmh S 3.1 mph5.0 kmh 30.50 in1032.8 mb 0.00 in0.0 mm 0.00 in/hr0.0 mm/hr 0.00 in0.0 mm
12:20 AM 71.1°F21.7°C 71.1°F21.7°C 100% Calm Calm 3.1 mph5.0 kmh 30.50 in1032.8 mb 0.00 in0.0 mm 0.00 in/hr0.0 mm/hr 0.00 in0.0 mm
12:19 AM 71.1°F21.7°C 71.1°F21.7°C 100% Calm Calm 3.1 mph5.0 kmh 30.50 in1032.8 mb 0.00 in0.0 mm 0.00 in/hr0.0 mm/hr 0.00 in0.0 mm
12:18 AM 71.1°F21.7°C 71.1°F21.7°C 100% Calm Calm 4.5 mph7.2 kmh 30.50 in1032.8 mb 0.00 in0.0 mm 0.00 in/hr0.0 mm/hr 0.00 in0.0 mm
12:17 AM 71.2°F21.8°C 71.3°F21.8°C 100% Calm Calm 4.5 mph7.2 kmh 30.50 in1032.8 mb 0.00 in0.0 mm 0.00 in/hr0.0 mm/hr 0.00 in0.0 mm
12:16 AM 71.2°F21.8°C 71.3°F21.8°C 100% Calm Calm 4.5 mph7.2 kmh 30.50 in1032.8 mb 0.00 in0.0 mm 0.00 in/hr0.0 mm/hr 0.00 in0.0 mm
12:15 AM 71.2°F21.8°C 71.3°F21.8°C 100% 0.7 mph SW1.1 kmh SW 4.5 mph7.2 kmh 30.50 in1032.8 mb 0.00 in0.0 mm 0.00 in/hr0.0 mm/hr 0.00 in0.0 mm
12:14 AM 71.2°F21.8°C 71.3°F21.8°C 100% Calm Calm 4.5 mph7.2 kmh 30.50 in1032.8 mb 0.00 in0.0 mm 0.00 in/hr0.0 mm/hr 0.00 in0.0 mm
12:13 AM 71.4°F21.9°C 71.5°F21.9°C 100% Calm Calm 4.5 mph7.2 kmh 30.50 in1032.8 mb 0.00 in0.0 mm 0.00 in/hr0.0 mm/hr 0.00 in0.0 mm
12:12 AM 71.4°F21.9°C 71.5°F21.9°C 100% Calm Calm 4.5 mph7.2 kmh 30.50 in1032.8 mb 0.00 in0.0 mm 0.00 in/hr0.0 mm/hr 0.00 in0.0 mm
12:11 AM 71.4°F21.9°C 71.5°F21.9°C 100% 1.6 mph SW2.6 kmh SW 4.5 mph7.2 kmh 30.50 in1032.8 mb 0.00 in0.0 mm 0.00 in/hr0.0 mm/hr 0.00 in0.0 mm
12:10 AM 71.4°F21.9°C 71.5°F21.9°C 100% 0.7 mph SW1.1 kmh SW 4.5 mph7.2 kmh 30.50 in1032.8 mb 0.00 in0.0 mm 0.00 in/hr0.0 mm/hr 0.00 in0.0 mm
12:09 AM 71.2°F21.8°C 71.3°F21.8°C 100% 1.6 mph SW2.6 kmh SW 4.5 mph7.2 kmh 30.50 in1032.8 mb 0.00 in0.0 mm 0.00 in/hr0.0 mm/hr 0.00 in0.0 mm
12:08 AM 70.9°F21.6°C 70.9°F21.6°C 100% 2.2 mph W3.5 kmh W 4.5 mph7.2 kmh 30.50 in1032.8 mb 0.00 in0.0 mm 0.00 in/hr0.0 mm/hr 0.00 in0.0 mm
12:07 AM 70.7°F21.5°C 70.7°F21.5°C 100% Calm Calm 2.2 mph3.5 kmh 30.50 in1032.8 mb 0.00 in0.0 mm 0.00 in/hr0.0 mm/hr 0.00 in0.0 mm
12:06 AM 70.7°F21.5°C 70.7°F21.5°C 100% Calm Calm 2.2 mph3.5 kmh 30.50 in1032.8 mb 0.00 in0.0 mm 0.00 in/hr0.0 mm/hr 0.00 in0.0 mm
12:05 AM 70.7°F21.5°C 70.7°F21.5°C 100% Calm Calm 2.2 mph3.5 kmh 30.49 in1032.5 mb 0.00 in0.0 mm 0.00 in/hr0.0 mm/hr 0.00 in0.0 mm
12:04 AM 70.7°F21.5°C 70.7°F21.5°C 100% Calm Calm 2.2 mph3.5 kmh 30.50 in1032.8 mb 0.00 in0.0 mm 0.00 in/hr0.0 mm/hr 0.00 in0.0 mm
12:03 AM 70.7°F21.5°C 70.7°F21.5°C 100% Calm Calm 2.2 mph3.5 kmh 30.49 in1032.5 mb 0.00 in0.0 mm 0.00 in/hr0.0 mm/hr 0.00 in0.0 mm
12:02 AM 70.7°F21.5°C 70.7°F21.5°C 100% Calm Calm 2.2 mph3.5 kmh 30.50 in1032.8 mb 0.00 in0.0 mm 0.00 in/hr0.0 mm/hr 0.00 in0.0 mm
12:01 AM 70.7°F21.5°C 70.7°F21.5°C 100% Calm Calm 2.2 mph3.5 kmh 30.50 in1032.8 mb 0.00 in0.0 mm 0.00 in/hr0.0 mm/hr 0.00 in0.0 mm
12:00 AM 70.7°F21.5°C 70.7°F21.5°C 100% Calm Calm 2.2 mph3.5 kmh 30.50 in1032.8 mb 0.00 in0.0 mm 0.00 in/hr0.0 mm/hr 0.00 in0.0 mm